• Join FlightAware (Why Join?)
  • Login
  • US Flag 
12:25PM EDT


 

Airport Tracker/Info


-or-


 

Live Flight TrackerFlight Track Log ✈ AAL1459 ✈ 12-Apr-2013 ✈ KORD - KRNO

Flight Track Log - Related Links

Times and Time Zones

All times are in EDT time to prevent confusion due to time zone crossing. See the AAL1459 flight status page for this flight to view local times or setup timezone preferences in your user account.

Time Position Orientation Groundspeed Altitude Reporting Facility
EDT Latitude Longitude Course Direction KTS MPH feet Rate Location/Type
06:30PM 42.0000 -87.9500 270° West 171 197 2,300  Level Chicago TRACON
06:31PM 42.0000 -88.0167 270° West 224 258 4,200 2,400 Climbing Chicago TRACON
06:32PM 42.0000 -88.1167 270° West 253 291 7,200 3,060 Climbing Chicago TRACON
06:33PM 41.9667 -88.3446 270° West  Level FlightAware Approximate
06:33PM 41.9939 -88.1631 260° West 242 278 8,900  Level Chicago Center
06:34PM 41.9667 -88.4928 270° West  Level FlightAware Approximate
06:34PM 41.9917 -88.2561 268° West 250 288 12,300  Level Chicago Center
06:35PM 41.9668 -88.6411 270° West  Level FlightAware Approximate
06:35PM 41.9903 -88.3586 269° West 271 312 14,000  Level Chicago Center
06:36PM 41.9667 -88.7977 270° West  Level FlightAware Approximate
06:36PM 42.0069 -88.4814 280° West 332 382 16,200  Level Chicago Center
06:37PM 42.0211 -88.6078 279° West 341 392 19,100 2,760 Climbing Chicago Center
06:38PM 42.0414 -88.7617 280° West 351 404 22,000 2,400 Climbing Chicago Center
06:39PM 42.0578 -88.8925 280° West 356 410 24,200 2,040 Climbing Chicago Center
06:40PM 42.0767 -89.0367 280° West 358 412 26,300 1,680 Climbing Chicago Center
06:41PM 42.0839 -89.1750 274° West 367 422 27,700 1,260 Climbing Chicago Center
06:42PM 42.0917 -89.3189 274° West 381 438 29,000 1,500 Climbing Chicago Center
06:43PM 42.0989 -89.4619 274° West 380 437 30,900 1,320 Climbing Chicago Center
06:44PM 42.1075 -89.6067 275° West 389 448 31,800 1,020 Climbing Chicago Center
06:45PM 42.1175 -89.7517 275° West 392 451 33,100 1,200 Climbing Chicago Center
06:46PM 42.1317 -89.9217 276° West 390 449 34,400 1,080 Climbing Chicago Center
06:47PM 42.1442 -90.0517 277° West 390 449 35,400 780 Climbing Chicago Center
06:48PM 42.1539 -90.1950 275° West 389 448 36,100 480 Climbing Chicago Center
06:49PM 42.1644 -90.3744 275° West 399 459 36,400 480 Climbing Chicago Center
06:50PM 42.1742 -90.5269 275° West 408 470 37,100 660 Climbing Chicago Center
06:51PM 42.1936 -90.6783 280° West 410 472 37,800 420 Climbing Chicago Center
06:52PM 42.2139 -90.8294 280° West 412 474 38,000 60 Climbing Chicago Center
06:54PM 42.2342 -90.9803 280° West 412 474 38,000  Level Chicago Center
06:55PM 42.2558 -91.1628 279° West 413 475 38,000  Level Chicago Center
06:56PM 42.2758 -91.3142 280° West 410 472 38,000  Level Chicago Center
06:57PM 42.2936 -91.4636 279° West 405 466 38,000  Level Chicago Center
06:58PM 42.3128 -91.6147 280° West 408 470 38,000  Level Chicago Center
06:59PM 42.3317 -91.7647 280° West 405 466 38,000  Level Chicago Center
07:00PM 42.3469 -92.0072 275° West 402 463 38,000  Level Minneapolis Center
07:01PM 42.3492 -92.0942 272° West 401 461 38,000  Level Chicago Center
07:01PM 42.3517 -92.1575 273° West 401 461 38,000  Level Minneapolis Center
07:02PM 42.3564 -92.3086 272° West 403 464 38,000  Level Minneapolis Center
07:03PM 42.3628 -92.4894 273° West 403 464 38,000  Level Minneapolis Center
07:04PM 42.3661 -92.6403 272° West 404 465 38,000  Level Minneapolis Center
07:05PM 42.3694 -92.7897 272° West 401 461 38,000  Level Minneapolis Center
07:06PM 42.3744 -92.9394 273° West 401 461 38,000  Level Minneapolis Center
07:08PM 42.3794 -93.0911 273° West 405 466 38,000  Level Minneapolis Center
07:09PM 42.3825 -93.2417 272° West 405 466 38,000  Level Minneapolis Center
07:10PM 42.3867 -93.4211 272° West 402 463 38,000  Level Minneapolis Center
07:11PM 42.3897 -93.5703 272° West 400 460 38,000  Level Minneapolis Center
07:12PM 42.3919 -93.7175 271° West 398 458 38,000  Level Minneapolis Center
07:13PM 42.3953 -93.8639 272° West 394 453 38,000  Level Minneapolis Center
07:14PM 42.3969 -94.0131 271° West 398 458 38,000  Level Minneapolis Center
07:15PM 42.4003 -94.1928 271° West 401 461 38,000  Level Minneapolis Center
07:16PM 42.4022 -94.3289 271° West 402 463 38,000  Level Minneapolis Center
07:17PM 42.4047 -94.4800 271° West 403 464 38,000  Level Minneapolis Center
07:18PM 42.4069 -94.6633 271° West 406 467 38,000  Level Minneapolis Center
07:19PM 42.4089 -94.7856 271° West 408 470 38,000  Level Minneapolis Center
07:20PM 42.4111 -94.9711 271° West 411 473 38,000  Level Minneapolis Center
07:21PM 42.4108 -95.1267 270° West 413 475 38,000  Level Minneapolis Center
07:22PM 42.4114 -95.2819 270° West 414 476 38,000  Level Minneapolis Center
07:23PM 42.4122 -95.4683 270° West 414 476 38,000  Level Minneapolis Center
07:24PM 42.4125 -95.6258 270° West 419 482 38,000  Level Minneapolis Center
07:25PM 42.4122 -95.7831 270° West 419 482 38,000  Level Minneapolis Center
07:26PM 42.4128 -95.9400 270° West 418 481 38,000  Level Minneapolis Center
07:27PM 42.4119 -96.0964 270° West 420 483 38,000  Level Minneapolis Center
07:28PM 42.4114 -96.2536 270° West 418 481 38,000  Level Minneapolis Center
07:29PM 42.4117 -96.4431 270° West 421 484 38,000  Level Minneapolis Center
07:30PM 42.4100 -96.6011 269° West 422 486 38,000  Level Minneapolis Center
07:31PM 42.4089 -96.7619 270° West 427 491 38,000  Level Minneapolis Center
07:32PM 42.4075 -96.9222 269° West 427 491 38,000  Level Minneapolis Center
07:33PM 42.4061 -97.0850 269° West 431 496 38,000  Level Minneapolis Center
07:34PM 42.4039 -97.2478 269° West 434 499 38,000  Level Minneapolis Center
07:35PM 42.4017 -97.4403 269° West 431 496 38,000  Level Minneapolis Center
07:36PM 42.3994 -97.6006 269° West 428 493 38,000  Level Minneapolis Center
07:37PM 42.3975 -97.7597 269° West 425 489 38,000  Level Minneapolis Center
07:38PM 42.3947 -97.9122 269° West 424 488 38,000  Level Minneapolis Center
07:40PM 42.3922 -98.0692 269° West 420 483 38,000  Level Minneapolis Center
07:41PM 42.3886 -98.2589 269° West 421 484 38,000  Level Minneapolis Center
07:42PM 42.3842 -98.4150 268° West 418 481 38,000  Level Minneapolis Center
07:43PM 42.3811 -98.5725 269° West 419 482 38,000  Level Minneapolis Center
07:44PM 42.3772 -98.7292 268° West 419 482 38,000  Level Minneapolis Center
07:45PM 42.3728 -98.8883 268° West 423 487 38,000  Level Minneapolis Center
07:46PM 42.3697 -99.0447 269° West 419 482 38,000  Level Minneapolis Center
07:47PM 42.3639 -99.2322 268° West 417 480 38,000  Level Minneapolis Center
07:48PM 42.3592 -99.3881 268° West 416 479 38,000  Level Minneapolis Center
07:48PM 42.3564 -99.4489 266° West 412 474 38,000  Level Denver Center
07:49PM 42.3519 -99.6031 268° West 412 474 38,000  Level Denver Center
07:50PM 42.3472 -99.7625 268° West 404 465 38,000  Level Denver Center
07:51PM 42.3425 -99.8806 267° West 397 457 38,000  Level Denver Center
07:52PM 42.3364 -100.0708 268° West 398 458 38,000  Level Denver Center
07:53PM 42.3300 -100.2331 267° West 390 449 38,000  Level Denver Center
07:54PM 42.3247 -100.3700 267° West 386 444 38,000  Level Denver Center
07:55PM 42.3194 -100.5069 267° West 383 441 38,000  Level Denver Center
07:57PM 42.3131 -100.6692 267° West 386 444 38,000  Level Denver Center
07:58PM 42.3069 -100.8097 267° West 391 450 38,000  Level Denver Center
07:59PM 42.2997 -100.9728 267° West 391 450 38,000  Level Denver Center
08:00PM 42.2928 -101.1136 266° West 393 452 38,000  Level Denver Center
08:01PM 42.2861 -101.2767 267° West 391 450 38,000  Level Denver Center
08:02PM 42.2800 -101.4172 267° West 394 453 38,000  Level Denver Center
08:03PM 42.2714 -101.5811 266° West 395 455 38,000  Level Denver Center
08:04PM 42.2639 -101.7208 266° West 392 451 38,000  Level Denver Center
08:05PM 42.2542 -101.9078 266° West 394 453 38,000  Level Denver Center
08:06PM 42.2453 -102.0736 266° West 398 458 38,000  Level Denver Center
08:07PM 42.2369 -102.2228 266° West 400 460 38,000  Level Denver Center
08:08PM 42.2292 -102.3661 266° West 400 460 38,000  Level Denver Center
08:09PM 42.2194 -102.5331 266° West 401 461 38,000  Level Denver Center
08:10PM 42.2122 -102.6756 266° West 400 460 38,000  Level Denver Center
08:11PM 42.2008 -102.8439 265° West 404 465 38,000  Level Denver Center
08:12PM 42.1925 -102.9842 265° West 396 456 38,000  Level Denver Center
08:13PM 42.1828 -103.1497 266° West 396 456 38,000  Level Denver Center
08:14PM 42.1742 -103.2942 265° West 402 463 38,000  Level Denver Center
08:15PM 42.1639 -103.4389 265° West 404 465 38,000  Level Denver Center
08:16PM 42.1522 -103.6081 265° West 405 466 38,000  Level Denver Center
08:17PM 42.1422 -103.7508 265° West 402 463 38,000  Level Denver Center
08:18PM 42.1306 -103.9189 265° West 402 463 38,000  Level Denver Center
08:19PM 42.1206 -104.0633 265° West 402 463 38,000  Level Denver Center
08:20PM 42.1081 -104.2333 264° West 406 467 38,000  Level Denver Center
08:22PM 42.0969 -104.3786 264° West 406 467 38,000  Level Denver Center
08:23PM 42.0847 -104.5486 265° West 407 468 38,000  Level Denver Center
08:24PM 42.0747 -104.6939 265° West 406 467 38,000  Level Denver Center
08:25PM 42.0628 -104.8414 264° West 411 473 38,000  Level Denver Center
08:26PM 42.0483 -105.0144 264° West 415 478 38,000  Level Denver Center
08:27PM 42.0364 -105.1628 264° West 416 479 38,000  Level Denver Center
08:28PM 42.0267 -105.2867 264° West 417 480 38,000  Level Denver Center
08:29PM 42.0100 -105.4817 264° West 411 473 38,000  Level Denver Center
08:30PM 41.9956 -105.6542 264° West 416 479 38,000  Level Denver Center
08:31PM 41.9836 -105.8019 264° West 417 480 38,000  Level Denver Center
08:32PM 41.9700 -105.9475 263° West 412 474 38,000  Level Denver Center
08:33PM 41.9556 -106.1147 263° West 406 467 38,000  Level Denver Center
08:34PM 41.9431 -106.2592 263° West 407 468 38,000  Level Denver Center
08:35PM 41.9278 -106.4272 263° West 407 468 38,000  Level Denver Center
08:36PM 41.9128 -106.5764 262° West 408 470 38,000  Level Denver Center
08:37PM 41.8994 -106.7219 263° West 410 472 38,000  Level Denver Center
08:38PM 41.8825 -106.8931 262° West 415 478 38,000  Level Denver Center
08:39PM 41.8681 -107.0394 263° West 414 476 38,000  Level Denver Center
08:40PM 41.8522 -107.2125 263° West 419 482 38,000  Level Denver Center
08:41PM 41.8378 -107.3581 262° West 414 476 38,000  Level Denver Center
08:42PM 41.8156 -107.5272 260° West 413 475 38,000  Level Denver Center
08:43PM 41.7964 -107.6683 260° West 406 467 38,000  Level Denver Center
08:44PM 41.7744 -107.8339 260° West 404 465 38,000  Level Denver Center
08:45PM 41.7547 -107.9767 260° West 408 470 38,000  Level Denver Center
08:46PM 41.7328 -108.1436 260° West 408 470 38,000  Level Denver Center
08:47PM 41.7131 -108.2864 260° West 407 468 38,000  Level Salt Lake Center
08:48PM 41.6933 -108.4283 260° West 407 468 38,000  Level Salt Lake Center
08:49PM 41.6700 -108.5931 259° West 406 467 38,000  Level Salt Lake Center
08:50PM 41.6506 -108.7336 260° West 404 465 38,000  Level Salt Lake Center
08:51PM 41.6275 -108.8958 259° West 402 463 38,000  Level Salt Lake Center
08:52PM 41.6081 -109.0339 259° West 399 459 38,000  Level Salt Lake Center
08:53PM 41.5836 -109.1944 259° West 401 461 38,000  Level Salt Lake Center
08:54PM 41.5639 -109.3333 259° West 404 465 38,000  Level Salt Lake Center
08:55PM 41.5394 -109.4972 259° West 406 467 38,000  Level Salt Lake Center
08:56PM 41.5186 -109.6372 259° West 405 466 38,000  Level Salt Lake Center
08:58PM 41.4931 -109.8008 258° West 407 468 38,000  Level Salt Lake Center
08:59PM 41.4719 -109.9417 259° West 405 466 38,000  Level Salt Lake Center
09:00PM 41.4497 -110.0825 258° West 406 467 38,000  Level Salt Lake Center
09:01PM 41.4247 -110.2464 259° West 406 467 38,000  Level Salt Lake Center
09:02PM 41.4025 -110.3856 258° West 404 465 38,000  Level Salt Lake Center
09:03PM 41.3769 -110.5497 258° West 405 466 38,000  Level Salt Lake Center
09:04PM 41.3550 -110.6892 258° West 404 465 38,000  Level Salt Lake Center
09:05PM 41.3319 -110.8297 258° West 407 468 38,000  Level Salt Lake Center
09:06PM 41.3075 -110.9783 258° West 409 471 38,000  Level Salt Lake Center
09:07PM 41.2781 -111.1569 258° West 413 475 38,000  Level Salt Lake Center
09:08PM 41.2531 -111.3069 258° West 417 480 38,000  Level Salt Lake Center
09:09PM 41.2289 -111.4561 258° West 417 480 38,000  Level Salt Lake Center
09:10PM 41.2039 -111.6036 257° West 413 475 38,000  Level Salt Lake Center
09:11PM 41.1789 -111.7494 257° West 411 473 38,000  Level Salt Lake Center
09:12PM 41.1547 -111.8928 257° West 410 472 38,000  Level Salt Lake Center
09:13PM 41.1247 -112.0664 257° West 413 475 38,000  Level Salt Lake Center
09:14PM 41.1033 -112.2142 259° West 411 473 38,000  Level Salt Lake Center
09:15PM 41.0858 -112.3606 261° West 405 466 38,000  Level Salt Lake Center
09:16PM 41.0678 -112.5081 261° West 406 467 38,000  Level Salt Lake Center
09:17PM 41.0489 -112.6550 260° West 407 468 38,000  Level Salt Lake Center
09:18PM 41.0303 -112.8000 260° West 401 461 38,000  Level Salt Lake Center
09:19PM 41.0111 -112.9439 260° West 399 459 38,000  Level Salt Lake Center
09:20PM 40.9886 -113.1161 260° West 395 455 38,000  Level Salt Lake Center
09:21PM 40.9700 -113.2589 260° West 395 455 38,000  Level Salt Lake Center
09:22PM 40.9492 -113.4006 259° West 394 453 38,000  Level Salt Lake Center
09:23PM 40.9303 -113.5428 260° West 394 453 38,000  Level Salt Lake Center
09:24PM 40.9117 -113.6844 260° West 392 451 38,000  Level Salt Lake Center
09:25PM 40.8917 -113.8275 260° West 395 455 38,000  Level Salt Lake Center
09:26PM 40.8714 -113.9686 259° West 393 452 38,000  Level Salt Lake Center
09:27PM 40.8522 -114.1089 260° West 391 450 38,000  Level Salt Lake Center
09:28PM 40.8325 -114.2503 260° West 392 451 38,000  Level Salt Lake Center
09:29PM 40.8075 -114.4208 259° West 394 453 38,000  Level Salt Lake Center
09:30PM 40.7861 -114.5681 259° West 395 455 38,000  Level Salt Lake Center
09:31PM 40.7667 -114.7042 259° West 394 453 38,000  Level Salt Lake Center
09:32PM 40.7458 -114.8386 258° West 393 452 38,000  Level Salt Lake Center
09:33PM 40.7231 -114.9975 259° West 394 453 38,000  Level Salt Lake Center
09:34PM 40.7019 -115.1317 258° West 392 451 38,000  Level Salt Lake Center
09:35PM 40.6769 -115.2892 258° West 392 451 38,000  Level Salt Lake Center
09:36PM 40.6556 -115.4222 258° West 390 449 38,000  Level Salt Lake Center
09:37PM 40.6356 -115.5564 259° West 390 449 38,000  Level Salt Lake Center
09:39PM 40.6108 -115.7147 258° West 393 452 38,000  Level Salt Lake Center
09:40PM 40.5903 -115.8508 259° West 395 455 38,000  Level Salt Lake Center
09:41PM 40.5653 -116.0078 258° West 394 453 38,000  Level Salt Lake Center
09:42PM 40.5450 -116.1425 259° West 394 453 38,000  Level Salt Lake Center
09:43PM 40.5219 -116.2783 257° West 396 456 38,000  Level Salt Lake Center
09:44PM 40.4967 -116.4353 258° West 394 453 38,000  Level Salt Lake Center
09:45PM 40.4747 -116.5700 258° West 394 453 38,000  Level Salt Lake Center
09:46PM 40.4492 -116.7269 258° West 396 456 38,000  Level Salt Lake Center
09:47PM 40.4258 -116.8622 257° West 399 459 38,000  Level Salt Lake Center
09:48PM 40.4017 -117.0106 258° West 394 453 38,000  Level Salt Lake Center
09:49PM 40.3786 -117.1450 257° West 395 455 38,000  Level Salt Lake Center
09:50PM 40.3525 -117.3003 258° West 392 451 38,000  Level Salt Lake Center
09:51PM 40.3292 -117.4333 257° West 391 450 38,000  Level Salt Lake Center
09:52PM 40.3017 -117.5864 257° West 389 448 38,000  Level Salt Lake Center
09:53PM 40.2783 -117.7194 257° West 390 449 38,000  Level Salt Lake Center
09:54PM 40.2553 -117.8511 257° West 389 448 38,000  Level Salt Lake Center
09:55PM 40.2297 -118.0000 257° West 389 448 38,000 -420 Level Oakland Center
09:56PM 40.2053 -118.1389 257° West 392 451 37,200 -1,440 Descending Oakland Center
09:57PM 40.1803 -118.2786 257° West 394 453 35,100 -2,520 Descending Oakland Center
09:58PM 40.1544 -118.4169 256° West 394 453 32,100 -2,880 Descending Oakland Center
09:59PM 40.1281 -118.5631 257° West 411 473 29,200 -2,640 Descending Oakland Center
10:00PM 40.1019 -118.7039 256° West 405 466 26,800 -2,040 Descending Oakland Center
10:01PM 40.0747 -118.8431 256° West 398 458 25,100 -1,920 Descending Oakland Center
10:02PM 40.0506 -118.9647 255° West 353 406 23,000 -2,520 Descending Oakland Center
10:03PM 40.0231 -119.1053 256° West 338 389 20,000 -2,520 Descending Oakland Center
10:04PM 39.9992 -119.2192 255° West 328 377 17,900 -1,980 Descending Oakland Center
10:05PM 39.9769 -119.3322 256° West 324 373 16,000 -1,380 Descending Oakland Center
10:06PM 39.9556 -119.4406 256° West 313 360 15,100 -1,380 Descending Oakland Center
10:07PM 39.9300 -119.5461 253° West 308 354 13,300 -1,680 Descending Oakland Center
10:08PM 39.9069 -119.6508 254° West 304 350 11,700 -1,680 Descending Oakland Center
10:09PM 39.8728 -119.7397 243° Southwest 291 335 10,000 -840 Descending Oakland Center
10:10PM 39.7986 -119.7669 196° South 290 334 10,000 -540 Level Oakland Center
10:11PM 39.7256 -119.7686 181° South 273 314 8,900 -1,140 Descending Oakland Center